Terminal Aerodrome Forecast
Issued by NWS Cleveland, OH

Home | Current Version | Previous Version | Graphics & Text | Print | Product List | Glossary On
Versions: 1 2 3 4 5 6 7 8 9 10 11 12 13 14 15 16 17 18 19
000
FTUS41 KCLE 121300 AAA
TAFERI
TAF AMD
KERI 121346Z 1214/1312 05008KT P6SM BKN015 OVC030
      TEMPO 1214/1217 SCT015 OVC030
     FM121700 03010KT P6SM BKN030
     FM122000 03010KT P6SM SCT035
     FM130000 06006KT P6SM SCT040 BKN120
     FM131000 12005KT P6SM VCSH BKN040 OVC070=

USA.gov is the U.S. government's official web portal to all federal, state and local government web resources and services.